createdAt,value
2022-08-28T00:00:29.501Z,24.33
2022-08-28T00:02:57.021Z,23.10
2022-08-28T00:05:26.754Z,22.40
2022-08-28T00:07:54.282Z,27.97
2022-08-28T00:10:24.131Z,23.83
2022-08-28T00:12:53.054Z,29.97
2022-08-28T00:15:29.765Z,27.03
2022-08-28T00:17:57.577Z,26.23
2022-08-28T00:20:25.699Z,25.20
2022-08-28T00:22:54.726Z,29.43
2022-08-28T00:25:24.269Z,27.60
2022-08-28T00:27:53.152Z,25.97
2022-08-28T00:30:26.373Z,26.60
2022-08-28T00:32:55.368Z,28.03
2022-08-28T00:35:23.979Z,32.17
2022-08-28T00:37:51.661Z,32.90
2022-08-28T00:40:30.539Z,29.63
2022-08-28T00:43:03.945Z,25.77
2022-08-28T00:45:37.336Z,27.93
2022-08-28T00:48:07.017Z,27.53
2022-08-28T00:51:00.385Z,25.87
2022-08-28T00:53:32.716Z,32.33
2022-08-28T00:56:04.220Z,35.27
2022-08-28T00:58:38.766Z,29.60
2022-08-28T01:01:06.386Z,27.87
2022-08-28T01:03:33.431Z,32.87
2022-08-28T01:06:01.217Z,31.27
2022-08-28T01:08:30.357Z,29.23
2022-08-28T01:11:01.681Z,34.90
2022-08-28T01:13:29.650Z,36.00
2022-08-28T01:15:58.367Z,33.67
2022-08-28T01:18:27.387Z,34.40
2022-08-28T01:21:23.901Z,43.40
2022-08-28T01:23:58.221Z,42.63
2022-08-28T01:26:27.764Z,47.27
2022-08-28T01:28:58.282Z,37.47
2022-08-28T01:31:27.135Z,33.57
2022-08-28T01:33:55.038Z,35.20
2022-08-28T01:36:22.137Z,34.83
2022-08-28T01:38:56.044Z,39.70
2022-08-28T01:41:23.069Z,32.77
2022-08-28T01:43:50.122Z,43.70
2022-08-28T01:46:17.432Z,41.23
2022-08-28T01:48:44.731Z,40.13
2022-08-28T01:51:13.139Z,41.17
2022-08-28T01:53:41.342Z,41.40
2022-08-28T01:56:14.718Z,42.00
2022-08-28T01:58:42.118Z,40.00
2022-08-28T02:01:12.417Z,41.40
2022-08-28T02:03:39.840Z,43.87
2022-08-28T02:06:06.981Z,38.33
2022-08-28T02:08:33.970Z,41.33
2022-08-28T02:11:00.966Z,34.20
2022-08-28T02:13:28.420Z,36.50
2022-08-28T02:15:55.462Z,38.03
2022-08-28T02:18:22.889Z,36.27
2022-08-28T02:20:50.102Z,33.80
2022-08-28T02:23:17.237Z,35.17
2022-08-28T02:25:44.450Z,39.87
2022-08-28T02:28:11.693Z,33.73
2022-08-28T02:30:39.216Z,34.07
2022-08-28T02:33:06.706Z,44.23
2022-08-28T02:35:33.938Z,41.37
2022-08-28T02:38:01.666Z,37.93
2022-08-28T02:40:29.251Z,35.37
2022-08-28T02:42:56.355Z,46.67
2022-08-28T02:45:23.553Z,43.03
2022-08-28T02:47:53.279Z,41.47
2022-08-28T02:50:20.916Z,41.40
2022-08-28T02:52:47.932Z,37.47
2022-08-28T02:55:17.815Z,36.67
2022-08-28T02:57:46.541Z,37.23
2022-08-28T03:00:19.870Z,44.20
2022-08-28T03:02:48.026Z,36.73
2022-08-28T03:05:18.748Z,42.03
2022-08-28T03:07:45.855Z,37.53
2022-08-28T03:10:13.443Z,38.77
2022-08-28T03:12:40.413Z,33.67
2022-08-28T03:15:09.024Z,36.07
2022-08-28T03:17:37.019Z,42.53
2022-08-28T03:20:08.640Z,40.43
2022-08-28T03:22:54.389Z,33.93
2022-08-28T03:25:22.527Z,35.53
2022-08-28T03:27:49.761Z,40.13
2022-08-28T03:30:17.845Z,35.67
2022-08-28T03:32:44.947Z,36.27
2022-08-28T03:35:12.957Z,35.33
2022-08-28T03:37:40.390Z,36.23
2022-08-28T03:40:09.829Z,36.10
2022-08-28T03:42:36.841Z,29.07
2022-08-28T03:45:05.453Z,34.17
2022-08-28T03:47:32.413Z,30.30
2022-08-28T03:50:00.371Z,32.07
2022-08-28T03:52:27.659Z,30.00
2022-08-28T03:54:54.625Z,38.40
2022-08-28T03:57:22.891Z,35.40
2022-08-28T03:59:52.685Z,43.17
2022-08-28T04:02:20.678Z,33.00
2022-08-28T04:04:49.881Z,32.07
2022-08-28T04:07:18.317Z,33.63
2022-08-28T04:09:45.725Z,32.63
2022-08-28T04:12:13.137Z,34.03
2022-08-28T04:14:40.458Z,38.77
2022-08-28T04:17:08.084Z,33.70
2022-08-28T04:19:35.256Z,36.77
2022-08-28T04:22:02.388Z,36.67
2022-08-28T04:24:29.472Z,35.90
2022-08-28T04:26:56.525Z,39.10
2022-08-28T04:29:23.760Z,35.87
2022-08-28T04:31:50.863Z,34.17
2022-08-28T04:34:18.106Z,31.40
2022-08-28T04:36:46.184Z,34.00
2022-08-28T04:39:13.570Z,33.63
2022-08-28T04:41:40.886Z,30.93
2022-08-28T04:44:08.669Z,33.67
2022-08-28T04:46:36.066Z,31.83
2022-08-28T04:49:04.477Z,35.10
2022-08-28T04:51:32.609Z,29.40
2022-08-28T04:54:01.399Z,32.03
2022-08-28T04:56:28.382Z,33.47
2022-08-28T04:58:55.468Z,29.70
2022-08-28T05:01:24.700Z,31.43
2022-08-28T05:03:56.101Z,28.30
2022-08-28T05:06:26.791Z,34.13
2022-08-28T05:08:59.643Z,31.03
2022-08-28T05:11:34.615Z,32.27
2022-08-28T05:14:07.372Z,33.33
2022-08-28T05:16:42.629Z,31.57
2022-08-28T05:19:10.449Z,33.33
2022-08-28T05:21:37.823Z,31.07
2022-08-28T05:24:06.482Z,36.07
2022-08-28T05:26:34.617Z,35.93
2022-08-28T05:29:02.171Z,34.43
2022-08-28T05:31:31.310Z,30.50
2022-08-28T05:33:59.465Z,28.23
2022-08-28T05:36:32.938Z,31.07
2022-08-28T05:39:01.902Z,29.97
2022-08-28T05:41:30.841Z,31.37
2022-08-28T05:44:07.312Z,32.30
2022-08-28T05:46:35.941Z,36.80
2022-08-28T05:49:07.743Z,34.93
2022-08-28T05:51:36.840Z,30.27
2022-08-28T05:54:04.264Z,30.60
2022-08-28T05:56:36.593Z,30.80
2022-08-28T05:59:04.718Z,29.20
2022-08-28T06:01:39.069Z,29.50
2022-08-28T06:04:19.138Z,33.50
2022-08-28T06:06:46.815Z,35.07
2022-08-28T06:09:17.700Z,33.63
2022-08-28T06:11:46.168Z,30.87
2022-08-28T06:14:17.893Z,34.07
2022-08-28T06:16:50.773Z,30.23
2022-08-28T06:19:18.334Z,28.43
2022-08-28T06:21:48.120Z,28.40
2022-08-28T06:24:15.368Z,29.20
2022-08-28T06:26:42.414Z,31.47
2022-08-28T06:29:12.010Z,30.17
2022-08-28T06:31:39.937Z,26.60
2022-08-28T06:34:07.750Z,27.33
2022-08-28T06:36:39.507Z,31.93
2022-08-28T06:39:08.044Z,27.50
2022-08-28T06:41:39.849Z,26.10
2022-08-28T06:44:12.623Z,27.80
2022-08-28T06:46:40.649Z,26.90
2022-08-28T06:49:09.059Z,25.50
2022-08-28T06:51:36.352Z,25.00
2022-08-28T06:54:04.801Z,25.27
2022-08-28T06:56:31.942Z,25.27
2022-08-28T06:58:59.525Z,28.23
2022-08-28T07:01:30.048Z,24.23
2022-08-28T07:04:00.178Z,20.87
2022-08-28T07:06:30.626Z,26.57
2022-08-28T07:08:57.671Z,22.00
2022-08-28T07:11:28.957Z,22.30
2022-08-28T07:13:57.061Z,24.67
2022-08-28T07:16:28.265Z,28.07
2022-08-28T07:18:55.905Z,25.57
2022-08-28T07:21:23.139Z,20.87
2022-08-28T07:23:50.677Z,21.10
2022-08-28T07:26:22.826Z,18.90
2022-08-28T07:28:50.893Z,17.83
2022-08-28T07:31:21.208Z,17.83
2022-08-28T07:33:50.794Z,17.67
2022-08-28T07:36:29.407Z,14.87
2022-08-28T07:38:59.134Z,15.23
2022-08-28T07:41:29.377Z,15.90
2022-08-28T07:44:15.822Z,18.10
2022-08-28T07:46:43.496Z,14.33
2022-08-28T07:49:11.543Z,21.47
2022-08-28T07:51:38.654Z,15.67
2022-08-28T07:54:06.066Z,16.93
2022-08-28T07:56:33.481Z,14.40
2022-08-28T07:59:01.504Z,15.30
2022-08-28T08:01:30.577Z,13.47
2022-08-28T08:04:01.443Z,11.40
2022-08-28T08:06:33.747Z,14.63
2022-08-28T08:09:02.248Z,13.13
2022-08-28T08:11:32.439Z,11.87
2022-08-28T08:14:05.361Z,12.40
2022-08-28T08:16:39.564Z,15.80
2022-08-28T08:19:10.258Z,12.13
2022-08-28T08:21:38.054Z,13.67
2022-08-28T08:24:05.495Z,12.97
2022-08-28T08:26:33.828Z,12.53
2022-08-28T08:29:01.633Z,12.53
2022-08-28T08:31:33.077Z,15.07
2022-08-28T08:34:02.194Z,13.10
2022-08-28T08:36:31.466Z,15.80
2022-08-28T08:39:00.363Z,18.13
2022-08-28T08:41:55.831Z,12.93
2022-08-28T08:44:46.961Z,12.20
2022-08-28T08:47:43.588Z,15.37
2022-08-28T08:50:20.641Z,9.87
2022-08-28T08:53:34.770Z,12.93
2022-08-28T08:56:05.606Z,11.60
2022-08-28T08:58:41.231Z,12.77
2022-08-28T09:01:53.285Z,16.73
2022-08-28T09:04:35.097Z,17.17
2022-08-28T09:07:13.525Z,15.07
2022-08-28T09:09:55.690Z,11.47
2022-08-28T09:12:28.151Z,15.80
2022-08-28T09:15:10.672Z,11.20
2022-08-28T09:17:57.229Z,9.07
2022-08-28T09:20:32.457Z,11.67
2022-08-28T09:23:02.013Z,10.03
2022-08-28T09:25:52.919Z,12.07
2022-08-28T09:28:44.693Z,12.57
2022-08-28T09:31:19.561Z,11.03
2022-08-28T09:33:52.222Z,10.57
2022-08-28T09:36:36.905Z,12.73
2022-08-28T09:39:31.477Z,9.93
2022-08-28T09:42:39.910Z,10.77
2022-08-28T09:45:22.990Z,10.67
2022-08-28T09:47:58.031Z,9.27
2022-08-28T09:50:40.883Z,9.80
2022-08-28T09:53:18.307Z,13.70
2022-08-28T09:56:33.670Z,10.73
2022-08-28T09:59:09.913Z,9.97
2022-08-28T10:02:10.567Z,12.53
2022-08-28T10:05:02.425Z,9.67
2022-08-28T10:07:41.514Z,7.27
2022-08-28T10:10:46.790Z,9.73
2022-08-28T10:13:36.892Z,8.43
2022-08-28T10:16:28.955Z,10.33
2022-08-28T10:19:24.876Z,9.53
2022-08-28T10:22:22.763Z,10.20
2022-08-28T10:25:26.787Z,8.93
2022-08-28T10:28:12.995Z,7.70
2022-08-28T10:30:47.146Z,7.07
2022-08-28T10:33:23.988Z,10.27
2022-08-28T10:36:02.935Z,6.33
2022-08-28T10:38:42.420Z,12.40
2022-08-28T10:41:16.977Z,6.00
2022-08-28T10:43:49.147Z,6.67
2022-08-28T10:46:37.096Z,8.87
2022-08-28T10:49:06.678Z,6.13
2022-08-28T10:51:39.427Z,7.83
2022-08-28T10:54:33.923Z,7.37
2022-08-28T10:57:22.621Z,6.37
2022-08-28T10:59:52.256Z,8.43
2022-08-28T11:02:21.353Z,11.90
2022-08-28T11:04:49.457Z,7.43
2022-08-28T11:07:28.897Z,7.67
2022-08-28T11:09:56.628Z,9.33
2022-08-28T11:12:37.484Z,6.27
2022-08-28T11:15:49.625Z,6.23
2022-08-28T11:18:42.544Z,9.00
2022-08-28T11:21:23.746Z,10.90
2022-08-28T11:24:24.313Z,7.27
2022-08-28T11:27:19.067Z,9.10
2022-08-28T11:30:33.584Z,7.67
2022-08-28T11:33:07.275Z,7.47
2022-08-28T11:35:41.870Z,6.80
2022-08-28T11:38:09.396Z,7.83
2022-08-28T11:40:56.927Z,6.70
2022-08-28T11:43:36.500Z,5.47
2022-08-28T11:46:24.111Z,7.50
2022-08-28T11:48:53.962Z,5.87
2022-08-28T12:04:08.598Z,8.27
2022-08-28T12:07:20.072Z,5.87
2022-08-28T12:09:48.861Z,6.17
2022-08-28T12:12:53.790Z,8.23
2022-08-28T12:15:50.878Z,11.20
2022-08-28T12:18:36.870Z,9.93
2022-08-28T12:21:07.080Z,6.63
2022-08-28T12:23:59.168Z,5.33
2022-08-28T12:26:31.364Z,5.37
2022-08-28T12:29:03.296Z,6.37
2022-08-28T12:32:11.524Z,8.37
2022-08-28T12:34:44.110Z,11.17
2022-08-28T12:37:25.696Z,5.87
2022-08-28T12:39:55.071Z,6.30
2022-08-28T12:42:26.736Z,7.33
2022-08-28T12:44:59.434Z,7.33
2022-08-28T12:47:27.726Z,5.60
2022-08-28T12:49:54.875Z,6.40
2022-08-28T12:52:25.807Z,6.23
2022-08-28T12:54:55.502Z,8.10
2022-08-28T12:57:25.159Z,6.10
2022-08-28T12:59:54.907Z,6.07
2022-08-28T13:02:33.681Z,4.77
2022-08-28T13:05:08.319Z,4.73
2022-08-28T13:07:45.338Z,7.73
2022-08-28T13:10:29.863Z,6.20
2022-08-28T13:13:05.846Z,5.77
2022-08-28T13:15:57.996Z,5.50
2022-08-28T13:18:50.386Z,7.97
2022-08-28T13:21:32.588Z,5.37
2022-08-28T13:24:42.391Z,4.03
2022-08-28T13:27:22.240Z,6.07
2022-08-28T13:30:03.833Z,6.90
2022-08-28T13:32:34.132Z,4.43
2022-08-28T13:35:28.715Z,4.50
2022-08-28T13:38:06.353Z,5.70
2022-08-28T13:40:58.692Z,4.67
2022-08-28T13:43:29.102Z,4.03
2022-08-28T13:45:56.396Z,7.70
2022-08-28T13:48:28.062Z,5.73
2022-08-28T13:51:14.277Z,7.03
2022-08-28T13:53:48.736Z,5.43
2022-08-28T13:56:16.995Z,6.33
2022-08-28T13:58:44.721Z,6.37
2022-08-28T14:01:22.490Z,6.10
2022-08-28T14:03:58.822Z,4.47
2022-08-28T14:06:31.761Z,3.73
2022-08-28T14:08:59.251Z,5.70
2022-08-28T14:11:26.601Z,3.80
2022-08-28T14:13:55.398Z,5.57
2022-08-28T14:16:25.905Z,3.80
2022-08-28T14:18:53.461Z,4.07
2022-08-28T14:21:21.969Z,4.17
2022-08-28T14:23:48.971Z,3.53
2022-08-28T14:26:16.110Z,3.87
2022-08-28T14:28:43.304Z,5.43
2022-08-28T14:31:14.420Z,7.30
2022-08-28T14:33:45.069Z,4.97
2022-08-28T14:36:21.222Z,6.97
2022-08-28T14:38:52.665Z,5.03
2022-08-28T14:41:24.469Z,4.60
2022-08-28T14:43:52.623Z,6.03
2022-08-28T14:46:34.038Z,4.13
2022-08-28T14:49:03.969Z,6.40
2022-08-28T14:51:32.797Z,4.30
2022-08-28T14:54:01.133Z,4.43
2022-08-28T14:56:31.561Z,4.23
2022-08-28T14:59:00.371Z,5.07
2022-08-28T15:01:36.656Z,3.83
2022-08-28T15:04:12.453Z,7.82
2022-08-28T15:06:42.493Z,4.43
2022-08-28T15:09:14.095Z,3.58
2022-08-28T15:11:42.346Z,4.22
2022-08-28T15:14:09.662Z,4.90
2022-08-28T15:16:43.829Z,4.47
2022-08-28T15:19:12.778Z,6.50
2022-08-28T15:21:47.679Z,4.40
2022-08-28T15:24:17.009Z,4.22
2022-08-28T15:26:44.110Z,4.15
2022-08-28T15:29:12.098Z,3.05
2022-08-28T15:31:42.624Z,5.57
2022-08-28T15:34:22.352Z,4.13
2022-08-28T15:36:55.818Z,4.95
2022-08-28T15:39:46.946Z,5.05
2022-08-28T15:42:14.938Z,4.57
2022-08-28T15:44:42.490Z,6.10
2022-08-28T15:47:09.892Z,8.52
2022-08-28T15:49:46.852Z,4.90
2022-08-28T15:52:18.289Z,5.90
2022-08-28T15:54:45.408Z,5.15
2022-08-28T15:57:12.517Z,4.38
2022-08-28T15:59:49.994Z,5.13
2022-08-28T16:02:23.086Z,5.97
2022-08-28T16:04:50.807Z,3.65
2022-08-28T16:07:18.915Z,6.15
2022-08-28T16:09:45.965Z,5.15
2022-08-28T16:12:13.461Z,2.78
2022-08-28T16:14:40.726Z,4.47
2022-08-28T16:17:11.139Z,4.53
2022-08-28T16:19:42.608Z,3.95
2022-08-28T16:22:11.808Z,5.63
2022-08-28T16:24:38.991Z,3.27
2022-08-28T16:27:09.530Z,5.50
2022-08-28T16:29:40.635Z,4.23
2022-08-28T16:32:07.749Z,6.20
2022-08-28T16:34:37.006Z,9.25
2022-08-28T16:37:04.335Z,3.05
2022-08-28T16:39:31.632Z,5.65
2022-08-28T16:41:58.958Z,3.65
2022-08-28T16:44:28.913Z,5.55
2022-08-28T16:46:56.825Z,6.00
2022-08-28T16:49:24.466Z,5.30
2022-08-28T16:51:51.856Z,4.32
2022-08-28T16:54:19.582Z,5.63
2022-08-28T16:56:46.929Z,6.90
2022-08-28T16:59:23.272Z,8.70
2022-08-28T17:01:53.814Z,5.13
2022-08-28T17:04:22.064Z,4.32
2022-08-28T17:06:49.655Z,4.10
2022-08-28T17:09:16.673Z,5.55
2022-08-28T17:11:51.526Z,4.13
2022-08-28T17:14:20.000Z,5.05
2022-08-28T17:16:47.452Z,4.15
2022-08-28T17:19:15.800Z,6.32
2022-08-28T17:22:01.406Z,6.72
2022-08-28T17:24:29.002Z,5.03
2022-08-28T17:26:56.061Z,7.72
2022-08-28T17:29:23.213Z,4.13
2022-08-28T17:31:50.726Z,6.35
2022-08-28T17:34:20.458Z,6.73
2022-08-28T17:36:47.726Z,5.97
2022-08-28T17:39:16.312Z,7.77
2022-08-28T17:41:43.464Z,4.57
2022-08-28T17:44:10.977Z,6.27
2022-08-28T17:46:38.464Z,5.33
2022-08-28T17:49:07.518Z,6.83
2022-08-28T17:51:43.727Z,6.20
2022-08-28T17:54:17.876Z,6.80
2022-08-28T17:56:46.411Z,5.73
2022-08-28T17:59:14.649Z,7.47
2022-08-28T18:01:42.943Z,5.70
2022-08-28T18:04:10.846Z,9.60
2022-08-28T18:06:38.076Z,5.47
2022-08-28T18:09:06.130Z,8.53
2022-08-28T18:11:33.272Z,9.10
2022-08-28T18:14:01.032Z,7.43
2022-08-28T18:16:31.431Z,8.07
2022-08-28T18:19:00.040Z,6.87
2022-08-28T18:21:27.431Z,8.13
2022-08-28T18:23:54.589Z,9.57
2022-08-28T18:26:21.685Z,9.03
2022-08-28T18:28:49.138Z,13.10
2022-08-28T18:31:16.797Z,9.90
2022-08-28T18:33:43.949Z,7.57
2022-08-28T18:36:13.578Z,13.30
2022-08-28T18:38:42.092Z,6.10
2022-08-28T18:41:10.716Z,5.60
2022-08-28T18:43:37.786Z,7.53
2022-08-28T18:46:08.862Z,6.13
2022-08-28T18:48:37.414Z,9.57
2022-08-28T18:51:08.764Z,10.90
2022-08-28T18:53:36.725Z,10.83
2022-08-28T18:56:05.499Z,6.27
2022-08-28T18:58:33.022Z,10.73
2022-08-28T19:01:02.275Z,6.23
2022-08-28T19:03:30.713Z,6.63
2022-08-28T19:05:57.785Z,7.50
2022-08-28T19:08:26.075Z,10.13
2022-08-28T19:10:54.113Z,10.20
2022-08-28T19:13:21.317Z,7.17
2022-08-28T19:15:50.937Z,7.53
2022-08-28T19:18:18.760Z,10.50
2022-08-28T19:20:46.369Z,6.03
2022-08-28T19:23:17.372Z,6.33
2022-08-28T19:25:45.885Z,8.90
2022-08-28T19:28:14.029Z,6.33
2022-08-28T19:30:41.762Z,8.37
2022-08-28T19:33:08.894Z,8.10
2022-08-28T19:35:36.554Z,6.83
2022-08-28T19:38:03.759Z,10.43
2022-08-28T19:40:31.721Z,8.93
2022-08-28T19:43:00.648Z,9.53
2022-08-28T19:45:28.382Z,6.30
2022-08-28T19:47:55.509Z,9.77
2022-08-28T19:50:22.674Z,7.27
2022-08-28T19:52:50.009Z,9.00
2022-08-28T19:55:21.069Z,8.60
2022-08-28T19:57:49.473Z,5.20
2022-08-28T20:00:22.913Z,13.13
2022-08-28T20:02:52.439Z,7.23
2022-08-28T20:05:21.057Z,9.00
2022-08-28T20:07:49.007Z,12.90
2022-08-28T20:10:17.038Z,7.83
2022-08-28T20:12:48.173Z,6.40
2022-08-28T20:15:17.991Z,6.43
2022-08-28T20:17:49.636Z,6.23
2022-08-28T20:20:19.828Z,5.17
2022-08-28T20:22:46.803Z,8.07
2022-08-28T20:25:15.642Z,8.57
2022-08-28T20:27:42.830Z,7.60
2022-08-28T20:30:11.011Z,11.63
2022-08-28T20:32:42.352Z,5.90
2022-08-28T20:35:12.271Z,8.30
2022-08-28T20:37:44.967Z,8.63
2022-08-28T20:40:18.747Z,5.73
2022-08-28T20:42:46.489Z,7.80
2022-08-28T20:45:15.218Z,11.10
2022-08-28T20:47:42.789Z,13.63
2022-08-28T20:50:11.122Z,7.37
2022-08-28T20:52:38.582Z,7.77
2022-08-28T20:55:07.711Z,11.47
2022-08-28T20:57:35.352Z,12.67
2022-08-28T21:00:05.777Z,7.40
2022-08-28T21:02:33.262Z,9.23
2022-08-28T21:05:00.776Z,7.23
2022-08-28T21:07:28.200Z,7.33
2022-08-28T21:10:05.610Z,9.70
2022-08-28T21:12:39.002Z,7.53
2022-08-28T21:15:09.333Z,7.67
2022-08-28T21:17:36.317Z,7.47
2022-08-28T21:20:10.473Z,8.60
2022-08-28T21:22:38.274Z,8.93
2022-08-28T21:25:07.400Z,10.47
2022-08-28T21:27:34.885Z,8.93
2022-08-28T21:30:02.315Z,9.03
2022-08-28T21:32:30.349Z,9.67
2022-08-28T21:34:57.476Z,7.00
2022-08-28T21:37:24.690Z,8.37
2022-08-28T21:39:52.227Z,6.90
2022-08-28T21:42:21.515Z,8.00
2022-08-28T21:44:51.944Z,8.00
2022-08-28T21:47:23.466Z,7.57
2022-08-28T21:49:52.515Z,9.27
2022-08-28T21:52:21.934Z,8.63
2022-08-28T21:54:49.316Z,10.30
2022-08-28T21:57:16.931Z,11.50
2022-08-28T21:59:43.974Z,8.93
2022-08-28T22:02:11.337Z,10.10
2022-08-28T22:04:38.369Z,11.07
2022-08-28T22:07:05.452Z,8.93
2022-08-28T22:09:32.568Z,9.03
2022-08-28T22:11:59.555Z,10.93
2022-08-28T22:14:28.567Z,13.30
2022-08-28T22:16:55.848Z,9.07
2022-08-28T22:19:23.001Z,13.57
2022-08-28T22:22:08.870Z,10.10
2022-08-28T22:24:36.704Z,10.77
2022-08-28T22:27:04.826Z,11.70
2022-08-28T22:29:36.502Z,8.63
2022-08-28T22:32:04.853Z,10.53
2022-08-28T22:34:36.986Z,11.00
